Bear River City, UT

2:31 AM MST on December 07, 2019 (GMT -0700)
Honeyville | | Change Station
Active Advisory: Dense Fog Advisory

Elev 4285 ft 41.65 °N, 112.10 °W | Updated 10 seconds ago

Overcast
Overcast
28.6 °F
Feels Like 29 °F
N
0.7
Wind Variable Wind from South
Gusts 1.1 mph

Today
High -- | Low -- °F
--% Chance of Precip.
Yesterday
High -- | Low -- °F
Precip. -- in
Pressure 30.16 in
Visibility 0.2 miles
Clouds Overcast 200 ft
Windchill 29 °F
Dew Point 28 °F
Humidity 99%
Rainfall 0.00 in
Snow Depth Not available.
7:41 AM 4:58 PM
Waxing Gibbous, 78% visible
METAR KBMC 070830Z AUTO 12003KT 1/4SM OVC002 M01/M02 A3016 RMK AO1 T10071017
Pressure 30.16 in
Visibility 0.2 miles
Clouds Overcast 200 ft
Windchill 29 °F
Dew Point 28 °F
Humidity 99%
Rainfall 0.00 in
Snow Depth Not available.
7:41 AM 4:58 PM
Waxing Gibbous, 78% visible
METAR KBMC 070830Z AUTO 12003KT 1/4SM OVC002 M01/M02 A3016 RMK AO1 T10071017

Get Your Daily Forecast Email!

Thanks for signing up!

Be on the lookout for a verification email in your inbox.

You'll start receiving severe weather alerts in your inbox..

×

10-Day Weather Forecast

Almanac

Astronomy

Dec. 07, 2019 Rise Set
Actual Time
Civil Twilight
Nautical Twilight
Astronomical Twilight
Moon
Length of Visible Light
Length of Day
Tomorrow will be .
, % of the Moon is Illuminated

Today's Extremes

State Highs State Lows

Community

WunderPhotos

Category 6

Welcome to Category 6. This is the collective home for Weather Underground's featured writeups by Dr. Jeff Masters (right), Bob Henson (left), Chris Burt, and other regular contributors.

Nearby

Air Quality

  Air Quality AQ Index Pollutant
Not available.

Snow Depth

Station Depth Elevation

Earthquake Activity

City Distance Mag. Time & Date
Minimum magnitude displayed is 2.5.

Coastal Water Temperatures

Place Temperature

Stations

Nearby Weather Stations

Station Location Temp. Windchill Dew Point Humidity Wind Precip. Elev Updated Type
                   

Watches & Warnings

Dense Fog Advisory
Issued: 9:36 PM MST Dec. 6, 2019 – National Weather Service

... Dense fog advisory remains in effect until 8 am MST Saturday...

* what... visibility below one quarter mile in dense fog.

* Where... Salt Lake and Tooele valleys and northern Wasatch
front.

* When... until 8 am MST Saturday.

* Impacts... hazardous driving conditions due to low visibility.

* Additional details... the most dense fog will occur near the
Great Salt Lake and along The Bench areas through early
Saturday morning.

Precautionary/preparedness actions...

If driving, slow down and use your low beam headlights.